sensor_id;sensor_type;location;lat;lon;timestamp;P1;durP1;ratioP1;P2;durP2;ratioP2
20170;SDS011;10245;51.344;6.620;2023-12-04T00:01:21;28.07;;;16.73;;
20170;SDS011;10245;51.344;6.620;2023-12-04T00:03:46;30.27;;;17.77;;
20170;SDS011;10245;51.344;6.620;2023-12-04T00:06:10;26.27;;;16.33;;
20170;SDS011;10245;51.344;6.620;2023-12-04T00:08:33;27.30;;;16.53;;
20170;SDS011;10245;51.344;6.620;2023-12-04T00:10:58;26.97;;;15.30;;
20170;SDS011;10245;51.344;6.620;2023-12-04T00:13:21;26.90;;;16.37;;
20170;SDS011;10245;51.344;6.620;2023-12-04T00:15:45;27.00;;;15.77;;
20170;SDS011;10245;51.344;6.620;2023-12-04T00:18:09;26.17;;;15.80;;
20170;SDS011;10245;51.344;6.620;2023-12-04T00:20:33;26.83;;;16.47;;
20170;SDS011;10245;51.344;6.620;2023-12-04T00:22:57;26.10;;;15.57;;
20170;SDS011;10245;51.344;6.620;2023-12-04T00:25:20;25.43;;;16.37;;
20170;SDS011;10245;51.344;6.620;2023-12-04T00:27:43;29.83;;;16.53;;
20170;SDS011;10245;51.344;6.620;2023-12-04T00:30:07;26.27;;;15.80;;
20170;SDS011;10245;51.344;6.620;2023-12-04T00:32:32;26.60;;;15.60;;
20170;SDS011;10245;51.344;6.620;2023-12-04T00:34:56;27.83;;;15.70;;
20170;SDS011;10245;51.344;6.620;2023-12-04T00:37:19;23.57;;;15.17;;
20170;SDS011;10245;51.344;6.620;2023-12-04T00:39:42;23.43;;;14.43;;
20170;SDS011;10245;51.344;6.620;2023-12-04T00:42:05;24.40;;;13.93;;
20170;SDS011;10245;51.344;6.620;2023-12-04T00:44:28;24.33;;;15.33;;
20170;SDS011;10245;51.344;6.620;2023-12-04T00:46:52;23.33;;;14.60;;
20170;SDS011;10245;51.344;6.620;2023-12-04T00:49:17;24.93;;;14.53;;
20170;SDS011;10245;51.344;6.620;2023-12-04T00:51:41;23.67;;;15.37;;
20170;SDS011;10245;51.344;6.620;2023-12-04T00:54:04;21.60;;;13.87;;
20170;SDS011;10245;51.344;6.620;2023-12-04T00:56:28;22.47;;;14.17;;
20170;SDS011;10245;51.344;6.620;2023-12-04T00:58:52;22.83;;;14.53;;
20170;SDS011;10245;51.344;6.620;2023-12-04T01:01:15;23.87;;;14.53;;
20170;SDS011;10245;51.344;6.620;2023-12-04T01:03:40;22.60;;;13.60;;
20170;SDS011;10245;51.344;6.620;2023-12-04T01:06:05;25.70;;;14.53;;
20170;SDS011;10245;51.344;6.620;2023-12-04T01:08:29;21.97;;;13.47;;
20170;SDS011;10245;51.344;6.620;2023-12-04T01:10:53;22.03;;;13.57;;
20170;SDS011;10245;51.344;6.620;2023-12-04T01:13:16;22.43;;;13.50;;
20170;SDS011;10245;51.344;6.620;2023-12-04T01:15:40;24.23;;;13.40;;
20170;SDS011;10245;51.344;6.620;2023-12-04T01:18:04;22.63;;;13.27;;
20170;SDS011;10245;51.344;6.620;2023-12-04T01:20:27;21.50;;;13.07;;
20170;SDS011;10245;51.344;6.620;2023-12-04T01:22:52;18.33;;;12.47;;
20170;SDS011;10245;51.344;6.620;2023-12-04T01:25:16;21.73;;;13.63;;
20170;SDS011;10245;51.344;6.620;2023-12-04T01:27:39;22.30;;;13.70;;
20170;SDS011;10245;51.344;6.620;2023-12-04T01:30:03;22.37;;;13.63;;
20170;SDS011;10245;51.344;6.620;2023-12-04T01:32:29;21.60;;;13.67;;
20170;SDS011;10245;51.344;6.620;2023-12-04T01:34:52;20.97;;;13.07;;
20170;SDS011;10245;51.344;6.620;2023-12-04T01:37:15;21.17;;;12.93;;
20170;SDS011;10245;51.344;6.620;2023-12-04T01:39:41;22.00;;;13.27;;
20170;SDS011;10245;51.344;6.620;2023-12-04T01:42:04;20.80;;;13.20;;
20170;SDS011;10245;51.344;6.620;2023-12-04T01:44:27;21.27;;;12.90;;
20170;SDS011;10245;51.344;6.620;2023-12-04T01:46:50;22.57;;;12.50;;
20170;SDS011;10245;51.344;6.620;2023-12-04T01:49:14;19.17;;;12.60;;
20170;SDS011;10245;51.344;6.620;2023-12-04T01:51:38;18.93;;;12.10;;
20170;SDS011;10245;51.344;6.620;2023-12-04T01:54:02;21.13;;;12.37;;
20170;SDS011;10245;51.344;6.620;2023-12-04T01:56:28;20.73;;;12.73;;
20170;SDS011;10245;51.344;6.620;2023-12-04T01:58:52;19.17;;;12.20;;
20170;SDS011;10245;51.344;6.620;2023-12-04T02:01:16;20.37;;;12.33;;
20170;SDS011;10245;51.344;6.620;2023-12-04T02:03:42;20.20;;;12.63;;
20170;SDS011;10245;51.344;6.620;2023-12-04T02:06:05;17.13;;;11.23;;
20170;SDS011;10245;51.344;6.620;2023-12-04T02:08:30;22.10;;;13.10;;
20170;SDS011;10245;51.344;6.620;2023-12-04T02:10:53;19.00;;;11.27;;
20170;SDS011;10245;51.344;6.620;2023-12-04T02:13:18;20.57;;;12.37;;
20170;SDS011;10245;51.344;6.620;2023-12-04T02:15:41;18.63;;;11.70;;
20170;SDS011;10245;51.344;6.620;2023-12-04T02:18:05;18.07;;;11.63;;
20170;SDS011;10245;51.344;6.620;2023-12-04T02:20:32;16.90;;;11.97;;
20170;SDS011;10245;51.344;6.620;2023-12-04T02:22:56;19.43;;;12.43;;
20170;SDS011;10245;51.344;6.620;2023-12-04T02:25:21;17.63;;;11.10;;
20170;SDS011;10245;51.344;6.620;2023-12-04T02:27:58;21.60;;;12.03;;
20170;SDS011;10245;51.344;6.620;2023-12-04T02:30:24;18.33;;;11.80;;
20170;SDS011;10245;51.344;6.620;2023-12-04T02:32:50;18.97;;;12.03;;
20170;SDS011;10245;51.344;6.620;2023-12-04T02:35:26;21.17;;;12.27;;
20170;SDS011;10245;51.344;6.620;2023-12-04T02:37:52;15.87;;;10.80;;
20170;SDS011;10245;51.344;6.620;2023-12-04T02:40:15;20.50;;;11.97;;
20170;SDS011;10245;51.344;6.620;2023-12-04T02:42:40;19.07;;;11.63;;
20170;SDS011;10245;51.344;6.620;2023-12-04T02:45:04;19.23;;;11.37;;
20170;SDS011;10245;51.344;6.620;2023-12-04T02:47:29;16.40;;;10.57;;
20170;SDS011;10245;51.344;6.620;2023-12-04T02:49:52;16.60;;;10.53;;
20170;SDS011;10245;51.344;6.620;2023-12-04T02:52:15;15.37;;;10.90;;
20170;SDS011;10245;51.344;6.620;2023-12-04T02:54:38;16.07;;;10.97;;
20170;SDS011;10245;51.344;6.620;2023-12-04T02:57:02;17.23;;;11.07;;
20170;SDS011;10245;51.344;6.620;2023-12-04T02:59:27;16.87;;;11.27;;
20170;SDS011;10245;51.344;6.620;2023-12-04T03:01:51;17.43;;;11.37;;
20170;SDS011;10245;51.344;6.620;2023-12-04T03:04:14;17.57;;;11.00;;
20170;SDS011;10245;51.344;6.620;2023-12-04T03:06:38;16.17;;;10.93;;
20170;SDS011;10245;51.344;6.620;2023-12-04T03:09:02;16.50;;;11.20;;
20170;SDS011;10245;51.344;6.620;2023-12-04T03:11:26;16.00;;;10.37;;
20170;SDS011;10245;51.344;6.620;2023-12-04T03:13:49;15.87;;;10.53;;
20170;SDS011;10245;51.344;6.620;2023-12-04T03:16:17;16.40;;;11.00;;
20170;SDS011;10245;51.344;6.620;2023-12-04T03:18:41;15.50;;;10.17;;
20170;SDS011;10245;51.344;6.620;2023-12-04T03:21:04;16.33;;;10.83;;
20170;SDS011;10245;51.344;6.620;2023-12-04T03:23:29;17.33;;;11.57;;
20170;SDS011;10245;51.344;6.620;2023-12-04T03:25:52;16.57;;;10.77;;
20170;SDS011;10245;51.344;6.620;2023-12-04T03:28:15;17.43;;;10.13;;
20170;SDS011;10245;51.344;6.620;2023-12-04T03:30:39;17.53;;;11.40;;
20170;SDS011;10245;51.344;6.620;2023-12-04T03:33:03;16.00;;;10.40;;
20170;SDS011;10245;51.344;6.620;2023-12-04T03:35:27;15.70;;;10.33;;
20170;SDS011;10245;51.344;6.620;2023-12-04T03:37:50;15.77;;;10.40;;
20170;SDS011;10245;51.344;6.620;2023-12-04T03:40:13;14.97;;;9.97;;
20170;SDS011;10245;51.344;6.620;2023-12-04T03:42:37;15.23;;;10.23;;
20170;SDS011;10245;51.344;6.620;2023-12-04T03:45:00;16.90;;;10.23;;
20170;SDS011;10245;51.344;6.620;2023-12-04T03:47:23;15.10;;;10.30;;
20170;SDS011;10245;51.344;6.620;2023-12-04T03:49:48;14.87;;;10.27;;
20170;SDS011;10245;51.344;6.620;2023-12-04T03:52:12;15.83;;;10.07;;
20170;SDS011;10245;51.344;6.620;2023-12-04T03:54:35;15.37;;;10.60;;
20170;SDS011;10245;51.344;6.620;2023-12-04T03:56:59;16.17;;;10.83;;
20170;SDS011;10245;51.344;6.620;2023-12-04T03:59:22;16.50;;;10.13;;
20170;SDS011;10245;51.344;6.620;2023-12-04T04:01:45;14.13;;;10.03;;
20170;SDS011;10245;51.344;6.620;2023-12-04T04:04:16;14.00;;;9.30;;
20170;SDS011;10245;51.344;6.620;2023-12-04T04:06:52;14.37;;;9.70;;
20170;SDS011;10245;51.344;6.620;2023-12-04T04:09:27;16.57;;;9.77;;
20170;SDS011;10245;51.344;6.620;2023-12-04T04:12:16;14.07;;;9.67;;
20170;SDS011;10245;51.344;6.620;2023-12-04T04:14:55;13.80;;;9.47;;
20170;SDS011;10245;51.344;6.620;2023-12-04T04:17:38;13.67;;;9.30;;
20170;SDS011;10245;51.344;6.620;2023-12-04T04:20:19;13.03;;;9.23;;
20170;SDS011;10245;51.344;6.620;2023-12-04T04:23:07;15.83;;;10.03;;
20170;SDS011;10245;51.344;6.620;2023-12-04T04:25:40;14.83;;;9.00;;
20170;SDS011;10245;51.344;6.620;2023-12-04T04:28:03;14.03;;;9.50;;
20170;SDS011;10245;51.344;6.620;2023-12-04T04:30:26;14.80;;;9.97;;
20170;SDS011;10245;51.344;6.620;2023-12-04T04:32:49;15.20;;;9.63;;
20170;SDS011;10245;51.344;6.620;2023-12-04T04:35:13;15.93;;;10.40;;
20170;SDS011;10245;51.344;6.620;2023-12-04T04:37:36;15.43;;;10.63;;
20170;SDS011;10245;51.344;6.620;2023-12-04T04:40:03;13.07;;;8.60;;
20170;SDS011;10245;51.344;6.620;2023-12-04T04:42:29;13.00;;;9.13;;
20170;SDS011;10245;51.344;6.620;2023-12-04T04:44:52;13.83;;;9.50;;
20170;SDS011;10245;51.344;6.620;2023-12-04T04:47:16;14.83;;;9.07;;
20170;SDS011;10245;51.344;6.620;2023-12-04T04:49:39;15.87;;;9.37;;
20170;SDS011;10245;51.344;6.620;2023-12-04T04:52:03;14.37;;;10.07;;
20170;SDS011;10245;51.344;6.620;2023-12-04T04:54:30;14.70;;;9.23;;
20170;SDS011;10245;51.344;6.620;2023-12-04T04:56:55;14.23;;;9.77;;
20170;SDS011;10245;51.344;6.620;2023-12-04T04:59:18;13.60;;;8.87;;
20170;SDS011;10245;51.344;6.620;2023-12-04T05:01:42;15.37;;;9.87;;
20170;SDS011;10245;51.344;6.620;2023-12-04T05:04:05;15.27;;;9.10;;
20170;SDS011;10245;51.344;6.620;2023-12-04T05:06:28;13.73;;;9.17;;
20170;SDS011;10245;51.344;6.620;2023-12-04T05:08:52;16.33;;;9.13;;
20170;SDS011;10245;51.344;6.620;2023-12-04T05:11:15;12.77;;;9.40;;
20170;SDS011;10245;51.344;6.620;2023-12-04T05:13:40;14.07;;;9.40;;
20170;SDS011;10245;51.344;6.620;2023-12-04T05:16:04;12.43;;;8.93;;
20170;SDS011;10245;51.344;6.620;2023-12-04T05:18:28;14.20;;;9.50;;
20170;SDS011;10245;51.344;6.620;2023-12-04T05:20:51;14.23;;;9.93;;
20170;SDS011;10245;51.344;6.620;2023-12-04T05:23:14;14.30;;;9.27;;
20170;SDS011;10245;51.344;6.620;2023-12-04T05:25:37;14.27;;;9.97;;
20170;SDS011;10245;51.344;6.620;2023-12-04T05:28:08;14.37;;;9.10;;
20170;SDS011;10245;51.344;6.620;2023-12-04T05:30:33;14.03;;;9.50;;
20170;SDS011;10245;51.344;6.620;2023-12-04T05:32:56;13.93;;;8.63;;
20170;SDS011;10245;51.344;6.620;2023-12-04T05:35:20;13.50;;;9.00;;
20170;SDS011;10245;51.344;6.620;2023-12-04T05:37:43;14.43;;;9.50;;
20170;SDS011;10245;51.344;6.620;2023-12-04T05:40:07;17.00;;;10.33;;
20170;SDS011;10245;51.344;6.620;2023-12-04T05:42:32;15.60;;;10.20;;
20170;SDS011;10245;51.344;6.620;2023-12-04T05:44:55;15.33;;;9.73;;
20170;SDS011;10245;51.344;6.620;2023-12-04T05:47:20;15.57;;;10.03;;
20170;SDS011;10245;51.344;6.620;2023-12-04T05:49:44;15.23;;;10.67;;
20170;SDS011;10245;51.344;6.620;2023-12-04T05:52:08;13.93;;;9.67;;
20170;SDS011;10245;51.344;6.620;2023-12-04T05:54:31;13.83;;;9.73;;
20170;SDS011;10245;51.344;6.620;2023-12-04T05:56:54;16.80;;;10.57;;
20170;SDS011;10245;51.344;6.620;2023-12-04T05:59:17;17.70;;;10.77;;
20170;SDS011;10245;51.344;6.620;2023-12-04T06:01:41;17.03;;;10.57;;
20170;SDS011;10245;51.344;6.620;2023-12-04T06:04:05;18.13;;;10.70;;
20170;SDS011;10245;51.344;6.620;2023-12-04T06:06:28;15.53;;;10.37;;
20170;SDS011;10245;51.344;6.620;2023-12-04T06:08:52;16.50;;;10.33;;
20170;SDS011;10245;51.344;6.620;2023-12-04T06:11:15;14.47;;;10.10;;
20170;SDS011;10245;51.344;6.620;2023-12-04T06:13:39;16.57;;;10.33;;
20170;SDS011;10245;51.344;6.620;2023-12-04T06:16:02;16.27;;;10.63;;
20170;SDS011;10245;51.344;6.620;2023-12-04T06:18:27;16.67;;;10.63;;
20170;SDS011;10245;51.344;6.620;2023-12-04T06:20:52;15.00;;;10.33;;
20170;SDS011;10245;51.344;6.620;2023-12-04T06:23:16;16.70;;;10.87;;
20170;SDS011;10245;51.344;6.620;2023-12-04T06:25:41;16.87;;;11.57;;
20170;SDS011;10245;51.344;6.620;2023-12-04T06:28:05;17.40;;;11.27;;
20170;SDS011;10245;51.344;6.620;2023-12-04T06:30:29;14.27;;;10.20;;
20170;SDS011;10245;51.344;6.620;2023-12-04T06:32:54;16.53;;;10.87;;
20170;SDS011;10245;51.344;6.620;2023-12-04T06:35:18;15.87;;;10.77;;
20170;SDS011;10245;51.344;6.620;2023-12-04T06:37:44;18.07;;;10.93;;
20170;SDS011;10245;51.344;6.620;2023-12-04T06:40:10;19.20;;;11.30;;
20170;SDS011;10245;51.344;6.620;2023-12-04T06:42:34;16.47;;;11.53;;
20170;SDS011;10245;51.344;6.620;2023-12-04T06:44:58;17.00;;;11.13;;
20170;SDS011;10245;51.344;6.620;2023-12-04T06:47:23;18.70;;;12.00;;
20170;SDS011;10245;51.344;6.620;2023-12-04T06:49:47;17.20;;;11.57;;
20170;SDS011;10245;51.344;6.620;2023-12-04T06:52:10;16.77;;;10.97;;
20170;SDS011;10245;51.344;6.620;2023-12-04T06:54:35;17.57;;;11.63;;
20170;SDS011;10245;51.344;6.620;2023-12-04T06:56:58;18.77;;;12.63;;
20170;SDS011;10245;51.344;6.620;2023-12-04T06:59:22;18.07;;;11.63;;
20170;SDS011;10245;51.344;6.620;2023-12-04T07:01:46;17.93;;;12.07;;
20170;SDS011;10245;51.344;6.620;2023-12-04T07:04:09;18.97;;;12.13;;
20170;SDS011;10245;51.344;6.620;2023-12-04T07:06:34;16.63;;;11.57;;
20170;SDS011;10245;51.344;6.620;2023-12-04T07:08:58;17.57;;;11.70;;
20170;SDS011;10245;51.344;6.620;2023-12-04T07:11:23;18.20;;;11.50;;
20170;SDS011;10245;51.344;6.620;2023-12-04T07:13:46;19.83;;;11.50;;
20170;SDS011;10245;51.344;6.620;2023-12-04T07:16:09;17.70;;;11.50;;
20170;SDS011;10245;51.344;6.620;2023-12-04T07:18:33;17.17;;;11.83;;
20170;SDS011;10245;51.344;6.620;2023-12-04T07:20:56;17.90;;;12.03;;
20170;SDS011;10245;51.344;6.620;2023-12-04T07:23:19;18.03;;;12.30;;
20170;SDS011;10245;51.344;6.620;2023-12-04T07:25:47;18.10;;;12.40;;
20170;SDS011;10245;51.344;6.620;2023-12-04T07:28:11;18.47;;;12.20;;
20170;SDS011;10245;51.344;6.620;2023-12-04T07:30:35;18.30;;;12.80;;
20170;SDS011;10245;51.344;6.620;2023-12-04T07:32:58;18.00;;;11.90;;
20170;SDS011;10245;51.344;6.620;2023-12-04T07:35:21;18.73;;;12.33;;
20170;SDS011;10245;51.344;6.620;2023-12-04T07:37:45;18.77;;;12.23;;
20170;SDS011;10245;51.344;6.620;2023-12-04T07:40:09;18.77;;;11.73;;
20170;SDS011;10245;51.344;6.620;2023-12-04T07:42:33;16.97;;;11.57;;
20170;SDS011;10245;51.344;6.620;2023-12-04T07:44:57;19.60;;;12.10;;
20170;SDS011;10245;51.344;6.620;2023-12-04T07:47:20;19.23;;;12.40;;
20170;SDS011;10245;51.344;6.620;2023-12-04T07:49:46;18.43;;;11.97;;
20170;SDS011;10245;51.344;6.620;2023-12-04T07:52:09;17.60;;;11.53;;
20170;SDS011;10245;51.344;6.620;2023-12-04T07:54:33;17.80;;;11.57;;
20170;SDS011;10245;51.344;6.620;2023-12-04T07:56:57;16.77;;;11.33;;
20170;SDS011;10245;51.344;6.620;2023-12-04T07:59:20;17.30;;;11.23;;
20170;SDS011;10245;51.344;6.620;2023-12-04T08:01:45;17.50;;;11.93;;
20170;SDS011;10245;51.344;6.620;2023-12-04T08:04:08;18.27;;;11.80;;
20170;SDS011;10245;51.344;6.620;2023-12-04T08:06:32;17.53;;;11.80;;
20170;SDS011;10245;51.344;6.620;2023-12-04T08:08:55;19.07;;;11.23;;
20170;SDS011;10245;51.344;6.620;2023-12-04T08:11:18;17.13;;;10.77;;
20170;SDS011;10245;51.344;6.620;2023-12-04T08:13:42;16.00;;;11.53;;
20170;SDS011;10245;51.344;6.620;2023-12-04T08:16:12;15.13;;;10.27;;
20170;SDS011;10245;51.344;6.620;2023-12-04T08:18:38;15.00;;;10.57;;
20170;SDS011;10245;51.344;6.620;2023-12-04T08:21:02;15.50;;;10.33;;
20170;SDS011;10245;51.344;6.620;2023-12-04T08:23:26;14.37;;;9.87;;
20170;SDS011;10245;51.344;6.620;2023-12-04T08:25:49;16.60;;;10.50;;
20170;SDS011;10245;51.344;6.620;2023-12-04T08:28:13;15.23;;;10.33;;
20170;SDS011;10245;51.344;6.620;2023-12-04T08:30:36;17.17;;;10.70;;
20170;SDS011;10245;51.344;6.620;2023-12-04T08:32:59;13.87;;;9.63;;
20170;SDS011;10245;51.344;6.620;2023-12-04T08:35:24;13.13;;;9.73;;
20170;SDS011;10245;51.344;6.620;2023-12-04T08:37:48;14.17;;;10.20;;
20170;SDS011;10245;51.344;6.620;2023-12-04T08:40:11;16.83;;;9.80;;
20170;SDS011;10245;51.344;6.620;2023-12-04T08:42:35;12.93;;;9.40;;
20170;SDS011;10245;51.344;6.620;2023-12-04T08:44:58;14.90;;;9.43;;
20170;SDS011;10245;51.344;6.620;2023-12-04T08:47:22;13.87;;;9.33;;
20170;SDS011;10245;51.344;6.620;2023-12-04T08:49:45;13.77;;;9.97;;
20170;SDS011;10245;51.344;6.620;2023-12-04T08:52:11;13.93;;;9.30;;
20170;SDS011;10245;51.344;6.620;2023-12-04T08:54:34;13.93;;;8.53;;
20170;SDS011;10245;51.344;6.620;2023-12-04T08:57:01;13.30;;;8.37;;
20170;SDS011;10245;51.344;6.620;2023-12-04T08:59:27;15.33;;;8.97;;
20170;SDS011;10245;51.344;6.620;2023-12-04T09:01:50;17.77;;;8.97;;
20170;SDS011;10245;51.344;6.620;2023-12-04T09:04:14;11.93;;;8.03;;
20170;SDS011;10245;51.344;6.620;2023-12-04T09:06:37;15.67;;;9.30;;
20170;SDS011;10245;51.344;6.620;2023-12-04T09:09:05;15.07;;;8.83;;
20170;SDS011;10245;51.344;6.620;2023-12-04T09:11:32;11.83;;;8.27;;
20170;SDS011;10245;51.344;6.620;2023-12-04T09:13:55;12.57;;;8.20;;
20170;SDS011;10245;51.344;6.620;2023-12-04T09:16:19;13.27;;;8.67;;
20170;SDS011;10245;51.344;6.620;2023-12-04T09:18:42;11.53;;;7.60;;
20170;SDS011;10245;51.344;6.620;2023-12-04T09:21:06;13.17;;;8.60;;
20170;SDS011;10245;51.344;6.620;2023-12-04T09:23:30;13.30;;;8.83;;
20170;SDS011;10245;51.344;6.620;2023-12-04T09:25:55;17.57;;;8.80;;
20170;SDS011;10245;51.344;6.620;2023-12-04T09:28:18;14.77;;;8.33;;
20170;SDS011;10245;51.344;6.620;2023-12-04T09:30:42;13.27;;;8.53;;
20170;SDS011;10245;51.344;6.620;2023-12-04T09:33:05;10.83;;;7.60;;
20170;SDS011;10245;51.344;6.620;2023-12-04T09:35:28;15.27;;;8.90;;
20170;SDS011;10245;51.344;6.620;2023-12-04T09:37:53;16.23;;;8.73;;
20170;SDS011;10245;51.344;6.620;2023-12-04T09:40:17;14.67;;;9.30;;
20170;SDS011;10245;51.344;6.620;2023-12-04T09:42:42;17.80;;;10.70;;
20170;SDS011;10245;51.344;6.620;2023-12-04T09:45:06;15.10;;;10.50;;
20170;SDS011;10245;51.344;6.620;2023-12-04T09:47:32;18.50;;;9.97;;
20170;SDS011;10245;51.344;6.620;2023-12-04T09:49:56;18.83;;;9.13;;
20170;SDS011;10245;51.344;6.620;2023-12-04T09:52:20;15.93;;;9.20;;
20170;SDS011;10245;51.344;6.620;2023-12-04T09:54:45;15.93;;;9.13;;
20170;SDS011;10245;51.344;6.620;2023-12-04T09:57:08;11.60;;;7.90;;
20170;SDS011;10245;51.344;6.620;2023-12-04T09:59:33;14.13;;;9.13;;
20170;SDS011;10245;51.344;6.620;2023-12-04T10:01:58;11.67;;;8.07;;
20170;SDS011;10245;51.344;6.620;2023-12-04T10:04:23;15.40;;;8.77;;
20170;SDS011;10245;51.344;6.620;2023-12-04T10:06:46;12.70;;;7.83;;
20170;SDS011;10245;51.344;6.620;2023-12-04T10:09:13;12.13;;;8.57;;
20170;SDS011;10245;51.344;6.620;2023-12-04T10:11:39;12.73;;;7.90;;
20170;SDS011;10245;51.344;6.620;2023-12-04T10:14:03;15.53;;;8.17;;
20170;SDS011;10245;51.344;6.620;2023-12-04T10:16:35;11.77;;;8.83;;
20170;SDS011;10245;51.344;6.620;2023-12-04T10:19:13;12.20;;;7.77;;
20170;SDS011;10245;51.344;6.620;2023-12-04T10:21:39;15.50;;;8.37;;
20170;SDS011;10245;51.344;6.620;2023-12-04T10:24:03;14.17;;;8.20;;
20170;SDS011;10245;51.344;6.620;2023-12-04T10:26:27;14.57;;;8.10;;
20170;SDS011;10245;51.344;6.620;2023-12-04T10:28:58;14.57;;;8.67;;
20170;SDS011;10245;51.344;6.620;2023-12-04T10:31:23;14.32;;;8.98;;
20170;SDS011;10245;51.344;6.620;2023-12-04T10:33:48;13.33;;;7.67;;
20170;SDS011;10245;51.344;6.620;2023-12-04T10:36:12;13.67;;;7.73;;
20170;SDS011;10245;51.344;6.620;2023-12-04T10:38:35;13.27;;;8.43;;
20170;SDS011;10245;51.344;6.620;2023-12-04T10:40:58;15.80;;;8.67;;
20170;SDS011;10245;51.344;6.620;2023-12-04T10:43:35;13.33;;;8.83;;
20170;SDS011;10245;51.344;6.620;2023-12-04T10:46:18;13.40;;;8.90;;
20170;SDS011;10245;51.344;6.620;2023-12-04T10:48:42;11.83;;;7.70;;
20170;SDS011;10245;51.344;6.620;2023-12-04T10:51:09;13.00;;;8.30;;
20170;SDS011;10245;51.344;6.620;2023-12-04T10:53:34;13.50;;;8.47;;
20170;SDS011;10245;51.344;6.620;2023-12-04T10:55:57;12.87;;;8.00;;
20170;SDS011;10245;51.344;6.620;2023-12-04T10:58:23;15.37;;;8.47;;
20170;SDS011;10245;51.344;6.620;2023-12-04T11:00:50;13.40;;;8.63;;
20170;SDS011;10245;51.344;6.620;2023-12-04T11:03:18;12.80;;;8.90;;
20170;SDS011;10245;51.344;6.620;2023-12-04T11:05:45;13.53;;;8.07;;
20170;SDS011;10245;51.344;6.620;2023-12-04T11:08:16;13.23;;;8.77;;
20170;SDS011;10245;51.344;6.620;2023-12-04T11:10:41;12.07;;;8.43;;
20170;SDS011;10245;51.344;6.620;2023-12-04T11:13:13;11.83;;;8.23;;
20170;SDS011;10245;51.344;6.620;2023-12-04T11:15:39;12.57;;;8.60;;
20170;SDS011;10245;51.344;6.620;2023-12-04T11:18:04;16.00;;;9.53;;
20170;SDS011;10245;51.344;6.620;2023-12-04T11:20:31;14.67;;;9.57;;
20170;SDS011;10245;51.344;6.620;2023-12-04T11:23:03;13.10;;;9.07;;
20170;SDS011;10245;51.344;6.620;2023-12-04T11:25:29;17.93;;;10.10;;
20170;SDS011;10245;51.344;6.620;2023-12-04T11:27:56;15.47;;;9.90;;
20170;SDS011;10245;51.344;6.620;2023-12-04T11:30:19;14.00;;;9.77;;
20170;SDS011;10245;51.344;6.620;2023-12-04T11:32:43;13.67;;;9.63;;
20170;SDS011;10245;51.344;6.620;2023-12-04T11:35:11;14.97;;;9.83;;
20170;SDS011;10245;51.344;6.620;2023-12-04T11:37:36;16.23;;;9.70;;
20170;SDS011;10245;51.344;6.620;2023-12-04T11:40:02;14.53;;;10.17;;
20170;SDS011;10245;51.344;6.620;2023-12-04T11:42:30;16.00;;;10.13;;
20170;SDS011;10245;51.344;6.620;2023-12-04T11:44:55;14.77;;;9.33;;
20170;SDS011;10245;51.344;6.620;2023-12-04T11:47:20;13.40;;;9.60;;
20170;SDS011;10245;51.344;6.620;2023-12-04T11:49:43;14.23;;;10.20;;
20170;SDS011;10245;51.344;6.620;2023-12-04T11:52:07;14.37;;;9.80;;
20170;SDS011;10245;51.344;6.620;2023-12-04T11:57:21;22.47;;;10.87;;
20170;SDS011;10245;51.344;6.620;2023-12-04T11:59:48;14.83;;;10.20;;
20170;SDS011;10245;51.344;6.620;2023-12-04T12:02:11;18.43;;;11.13;;
20170;SDS011;10245;51.344;6.620;2023-12-04T12:04:36;15.93;;;11.17;;
20170;SDS011;10245;51.344;6.620;2023-12-04T12:07:00;16.23;;;10.40;;
20170;SDS011;10245;51.344;6.620;2023-12-04T12:09:25;20.40;;;11.77;;
20170;SDS011;10245;51.344;6.620;2023-12-04T12:11:48;16.97;;;11.30;;
20170;SDS011;10245;51.344;6.620;2023-12-04T12:14:12;15.77;;;11.37;;
20170;SDS011;10245;51.344;6.620;2023-12-04T12:16:37;18.37;;;11.07;;
20170;SDS011;10245;51.344;6.620;2023-12-04T12:19:00;17.23;;;10.57;;
20170;SDS011;10245;51.344;6.620;2023-12-04T12:21:27;19.63;;;11.27;;
20170;SDS011;10245;51.344;6.620;2023-12-04T12:23:51;14.17;;;10.27;;
20170;SDS011;10245;51.344;6.620;2023-12-04T12:26:14;15.23;;;10.63;;
20170;SDS011;10245;51.344;6.620;2023-12-04T12:28:37;18.90;;;11.17;;
20170;SDS011;10245;51.344;6.620;2023-12-04T12:31:01;16.30;;;11.03;;
20170;SDS011;10245;51.344;6.620;2023-12-04T12:33:27;17.37;;;11.20;;
20170;SDS011;10245;51.344;6.620;2023-12-04T12:35:51;18.30;;;11.53;;
20170;SDS011;10245;51.344;6.620;2023-12-04T12:38:23;16.70;;;11.20;;
20170;SDS011;10245;51.344;6.620;2023-12-04T12:40:47;18.60;;;10.40;;
20170;SDS011;10245;51.344;6.620;2023-12-04T12:43:12;16.40;;;10.73;;
20170;SDS011;10245;51.344;6.620;2023-12-04T12:45:39;15.90;;;10.77;;
20170;SDS011;10245;51.344;6.620;2023-12-04T12:48:03;20.50;;;11.70;;
20170;SDS011;10245;51.344;6.620;2023-12-04T12:50:28;16.13;;;10.67;;
20170;SDS011;10245;51.344;6.620;2023-12-04T12:52:53;17.33;;;10.93;;
20170;SDS011;10245;51.344;6.620;2023-12-04T12:55:22;18.20;;;11.90;;
20170;SDS011;10245;51.344;6.620;2023-12-04T12:57:46;16.50;;;10.80;;
20170;SDS011;10245;51.344;6.620;2023-12-04T13:00:10;15.20;;;10.60;;
20170;SDS011;10245;51.344;6.620;2023-12-04T13:02:35;18.13;;;11.73;;
20170;SDS011;10245;51.344;6.620;2023-12-04T13:04:59;16.77;;;11.10;;
20170;SDS011;10245;51.344;6.620;2023-12-04T13:07:24;16.00;;;11.17;;
20170;SDS011;10245;51.344;6.620;2023-12-04T13:09:47;17.53;;;10.87;;
20170;SDS011;10245;51.344;6.620;2023-12-04T13:12:11;16.17;;;11.23;;
20170;SDS011;10245;51.344;6.620;2023-12-04T13:14:36;18.60;;;11.47;;
20170;SDS011;10245;51.344;6.620;2023-12-04T13:17:02;18.00;;;11.93;;
20170;SDS011;10245;51.344;6.620;2023-12-04T13:19:25;17.73;;;10.73;;
20170;SDS011;10245;51.344;6.620;2023-12-04T13:21:49;15.57;;;10.17;;
20170;SDS011;10245;51.344;6.620;2023-12-04T13:24:14;16.53;;;10.77;;
20170;SDS011;10245;51.344;6.620;2023-12-04T13:26:38;16.03;;;10.43;;
20170;SDS011;10245;51.344;6.620;2023-12-04T13:29:02;16.27;;;10.30;;
20170;SDS011;10245;51.344;6.620;2023-12-04T13:31:25;15.47;;;10.03;;
20170;SDS011;10245;51.344;6.620;2023-12-04T13:33:50;21.97;;;11.13;;
20170;SDS011;10245;51.344;6.620;2023-12-04T13:36:13;16.37;;;10.47;;
20170;SDS011;10245;51.344;6.620;2023-12-04T13:38:36;14.13;;;10.17;;
20170;SDS011;10245;51.344;6.620;2023-12-04T13:41:01;16.07;;;9.97;;
20170;SDS011;10245;51.344;6.620;2023-12-04T13:43:51;14.60;;;10.83;;
20170;SDS011;10245;51.344;6.620;2023-12-04T13:46:13;14.47;;;9.90;;
20170;SDS011;10245;51.344;6.620;2023-12-04T13:48:37;18.70;;;10.17;;
20170;SDS011;10245;51.344;6.620;2023-12-04T13:51:02;15.47;;;10.43;;
20170;SDS011;10245;51.344;6.620;2023-12-04T13:53:26;14.13;;;9.60;;
20170;SDS011;10245;51.344;6.620;2023-12-04T13:55:52;15.77;;;10.70;;
20170;SDS011;10245;51.344;6.620;2023-12-04T13:58:35;13.23;;;9.30;;
20170;SDS011;10245;51.344;6.620;2023-12-04T14:01:00;16.60;;;9.87;;
20170;SDS011;10245;51.344;6.620;2023-12-04T14:03:34;16.10;;;9.90;;
20170;SDS011;10245;51.344;6.620;2023-12-04T14:05:58;13.53;;;9.27;;
20170;SDS011;10245;51.344;6.620;2023-12-04T14:08:22;12.27;;;8.77;;
20170;SDS011;10245;51.344;6.620;2023-12-04T14:10:47;14.93;;;9.80;;
20170;SDS011;10245;51.344;6.620;2023-12-04T14:13:10;13.70;;;9.43;;
20170;SDS011;10245;51.344;6.620;2023-12-04T14:15:34;15.33;;;9.53;;